sensor_id;sensor_type;location;lat;lon;timestamp;P1;durP1;ratioP1;P2;durP2;ratioP2
44893;SDS011;30625;52.206;21.030;2023-02-28T00:00:01;21.92;;;7.30;;
44893;SDS011;30625;52.206;21.030;2023-02-28T00:02:33;19.33;;;8.57;;
44893;SDS011;30625;52.206;21.030;2023-02-28T00:05:02;18.08;;;8.80;;
44893;SDS011;30625;52.206;21.030;2023-02-28T00:07:32;17.70;;;8.60;;
44893;SDS011;30625;52.206;21.030;2023-02-28T00:10:08;19.08;;;8.07;;
44893;SDS011;30625;52.206;21.030;2023-02-28T00:12:40;20.77;;;8.32;;
44893;SDS011;30625;52.206;21.030;2023-02-28T00:15:15;20.58;;;8.70;;
44893;SDS011;30625;52.206;21.030;2023-02-28T00:17:41;17.33;;;7.55;;
44893;SDS011;30625;52.206;21.030;2023-02-28T00:20:08;15.13;;;7.53;;
44893;SDS011;30625;52.206;21.030;2023-02-28T00:22:35;17.45;;;7.88;;
44893;SDS011;30625;52.206;21.030;2023-02-28T00:25:02;17.10;;;7.93;;
44893;SDS011;30625;52.206;21.030;2023-02-28T00:27:28;18.55;;;7.97;;
44893;SDS011;30625;52.206;21.030;2023-02-28T00:29:54;20.15;;;7.97;;
44893;SDS011;30625;52.206;21.030;2023-02-28T00:32:20;17.85;;;7.72;;
44893;SDS011;30625;52.206;21.030;2023-02-28T00:34:49;17.77;;;8.48;;
44893;SDS011;30625;52.206;21.030;2023-02-28T00:37:14;14.10;;;7.15;;
44893;SDS011;30625;52.206;21.030;2023-02-28T00:39:40;18.27;;;8.95;;
44893;SDS011;30625;52.206;21.030;2023-02-28T00:42:06;16.88;;;7.78;;
44893;SDS011;30625;52.206;21.030;2023-02-28T00:44:32;18.60;;;8.18;;
44893;SDS011;30625;52.206;21.030;2023-02-28T00:46:58;20.83;;;8.77;;
44893;SDS011;30625;52.206;21.030;2023-02-28T00:49:25;21.30;;;8.00;;
44893;SDS011;30625;52.206;21.030;2023-02-28T00:51:51;15.80;;;8.05;;
44893;SDS011;30625;52.206;21.030;2023-02-28T00:54:18;18.65;;;8.18;;
44893;SDS011;30625;52.206;21.030;2023-02-28T00:56:44;20.55;;;8.70;;
44893;SDS011;30625;52.206;21.030;2023-02-28T01:01:36;16.17;;;7.68;;
44893;SDS011;30625;52.206;21.030;2023-02-28T01:04:02;17.17;;;7.95;;
44893;SDS011;30625;52.206;21.030;2023-02-28T01:06:28;19.90;;;8.38;;
44893;SDS011;30625;52.206;21.030;2023-02-28T01:08:53;16.15;;;7.45;;
44893;SDS011;30625;52.206;21.030;2023-02-28T01:11:19;23.35;;;9.18;;
44893;SDS011;30625;52.206;21.030;2023-02-28T01:13:45;19.38;;;8.32;;
44893;SDS011;30625;52.206;21.030;2023-02-28T01:16:11;16.75;;;8.40;;
44893;SDS011;30625;52.206;21.030;2023-02-28T01:18:39;16.45;;;7.18;;
44893;SDS011;30625;52.206;21.030;2023-02-28T01:21:05;15.27;;;8.00;;
44893;SDS011;30625;52.206;21.030;2023-02-28T01:23:32;17.88;;;8.40;;
44893;SDS011;30625;52.206;21.030;2023-02-28T01:26:03;17.95;;;8.57;;
44893;SDS011;30625;52.206;21.030;2023-02-28T01:28:30;17.83;;;8.00;;
44893;SDS011;30625;52.206;21.030;2023-02-28T01:30:55;18.20;;;7.90;;
44893;SDS011;30625;52.206;21.030;2023-02-28T01:33:21;20.63;;;7.82;;
44893;SDS011;30625;52.206;21.030;2023-02-28T01:35:46;20.92;;;8.10;;
44893;SDS011;30625;52.206;21.030;2023-02-28T01:38:12;17.83;;;8.57;;
44893;SDS011;30625;52.206;21.030;2023-02-28T01:40:38;18.52;;;8.50;;
44893;SDS011;30625;52.206;21.030;2023-02-28T01:43:07;19.77;;;8.45;;
44893;SDS011;30625;52.206;21.030;2023-02-28T01:45:44;21.55;;;8.55;;
44893;SDS011;30625;52.206;21.030;2023-02-28T01:48:09;21.92;;;8.95;;
44893;SDS011;30625;52.206;21.030;2023-02-28T01:50:36;19.00;;;8.68;;
44893;SDS011;30625;52.206;21.030;2023-02-28T01:53:14;16.35;;;8.43;;
44893;SDS011;30625;52.206;21.030;2023-02-28T01:55:45;21.92;;;8.77;;
44893;SDS011;30625;52.206;21.030;2023-02-28T01:58:17;17.52;;;8.20;;
44893;SDS011;30625;52.206;21.030;2023-02-28T02:00:46;18.17;;;8.93;;
44893;SDS011;30625;52.206;21.030;2023-02-28T02:03:13;17.55;;;8.32;;
44893;SDS011;30625;52.206;21.030;2023-02-28T02:05:44;17.73;;;8.35;;
44893;SDS011;30625;52.206;21.030;2023-02-28T02:08:13;20.10;;;9.38;;
44893;SDS011;30625;52.206;21.030;2023-02-28T02:10:47;21.70;;;9.15;;
44893;SDS011;30625;52.206;21.030;2023-02-28T02:18:57;19.92;;;9.02;;
44893;SDS011;30625;52.206;21.030;2023-02-28T02:21:58;19.63;;;9.63;;
44893;SDS011;30625;52.206;21.030;2023-02-28T02:30:46;22.85;;;8.65;;
44893;SDS011;30625;52.206;21.030;2023-02-28T02:38:53;17.45;;;8.15;;
44893;SDS011;30625;52.206;21.030;2023-02-28T02:44:31;22.05;;;9.85;;
44893;SDS011;30625;52.206;21.030;2023-02-28T02:47:10;21.20;;;9.18;;
44893;SDS011;30625;52.206;21.030;2023-02-28T02:49:42;24.50;;;10.52;;
44893;SDS011;30625;52.206;21.030;2023-02-28T02:52:12;22.88;;;9.13;;
44893;SDS011;30625;52.206;21.030;2023-02-28T02:54:43;20.55;;;9.20;;
44893;SDS011;30625;52.206;21.030;2023-02-28T02:57:16;23.88;;;9.85;;
44893;SDS011;30625;52.206;21.030;2023-02-28T02:59:47;21.67;;;10.63;;
44893;SDS011;30625;52.206;21.030;2023-02-28T03:02:15;23.60;;;10.52;;
44893;SDS011;30625;52.206;21.030;2023-02-28T03:04:47;21.70;;;9.38;;
44893;SDS011;30625;52.206;21.030;2023-02-28T03:07:17;22.25;;;9.52;;
44893;SDS011;30625;52.206;21.030;2023-02-28T03:09:50;23.10;;;9.38;;
44893;SDS011;30625;52.206;21.030;2023-02-28T03:12:17;23.77;;;10.32;;
44893;SDS011;30625;52.206;21.030;2023-02-28T03:14:50;21.25;;;9.73;;
44893;SDS011;30625;52.206;21.030;2023-02-28T03:17:40;21.52;;;9.52;;
44893;SDS011;30625;52.206;21.030;2023-02-28T03:20:26;20.00;;;9.40;;
44893;SDS011;30625;52.206;21.030;2023-02-28T03:25:55;17.05;;;8.80;;
44893;SDS011;30625;52.206;21.030;2023-02-28T03:36:45;18.65;;;9.20;;
44893;SDS011;30625;52.206;21.030;2023-02-28T03:42:18;24.20;;;9.93;;
44893;SDS011;30625;52.206;21.030;2023-02-28T03:44:51;21.20;;;9.57;;
44893;SDS011;30625;52.206;21.030;2023-02-28T03:47:26;19.42;;;9.57;;
44893;SDS011;30625;52.206;21.030;2023-02-28T03:52:38;17.40;;;8.50;;
44893;SDS011;30625;52.206;21.030;2023-02-28T03:55:17;19.80;;;9.30;;
44893;SDS011;30625;52.206;21.030;2023-02-28T03:57:49;19.63;;;9.07;;
44893;SDS011;30625;52.206;21.030;2023-02-28T04:00:35;19.50;;;10.32;;
44893;SDS011;30625;52.206;21.030;2023-02-28T04:03:07;19.67;;;8.88;;
44893;SDS011;30625;52.206;21.030;2023-02-28T04:05:33;17.00;;;9.13;;
44893;SDS011;30625;52.206;21.030;2023-02-28T04:08:17;20.80;;;9.18;;
44893;SDS011;30625;52.206;21.030;2023-02-28T04:10:43;21.15;;;8.57;;
44893;SDS011;30625;52.206;21.030;2023-02-28T04:13:13;19.17;;;8.75;;
44893;SDS011;30625;52.206;21.030;2023-02-28T04:15:38;16.88;;;8.18;;
44893;SDS011;30625;52.206;21.030;2023-02-28T04:18:04;20.25;;;9.35;;
44893;SDS011;30625;52.206;21.030;2023-02-28T04:20:30;19.80;;;8.25;;
44893;SDS011;30625;52.206;21.030;2023-02-28T04:22:56;19.63;;;9.10;;
44893;SDS011;30625;52.206;21.030;2023-02-28T04:25:21;21.73;;;9.77;;
44893;SDS011;30625;52.206;21.030;2023-02-28T04:27:47;20.55;;;8.93;;
44893;SDS011;30625;52.206;21.030;2023-02-28T04:30:12;22.35;;;10.00;;
44893;SDS011;30625;52.206;21.030;2023-02-28T04:32:38;19.10;;;9.10;;
44893;SDS011;30625;52.206;21.030;2023-02-28T04:35:04;20.63;;;9.57;;
44893;SDS011;30625;52.206;21.030;2023-02-28T04:39:59;18.73;;;8.88;;
44893;SDS011;30625;52.206;21.030;2023-02-28T04:44:51;22.27;;;10.05;;
44893;SDS011;30625;52.206;21.030;2023-02-28T04:47:17;24.70;;;9.30;;
44893;SDS011;30625;52.206;21.030;2023-02-28T04:49:43;23.45;;;9.75;;
44893;SDS011;30625;52.206;21.030;2023-02-28T04:52:08;25.05;;;9.63;;
44893;SDS011;30625;52.206;21.030;2023-02-28T04:54:35;22.95;;;10.27;;
44893;SDS011;30625;52.206;21.030;2023-02-28T04:57:00;21.15;;;9.32;;
44893;SDS011;30625;52.206;21.030;2023-02-28T04:59:26;19.40;;;8.80;;
44893;SDS011;30625;52.206;21.030;2023-02-28T05:01:52;24.33;;;10.52;;
44893;SDS011;30625;52.206;21.030;2023-02-28T05:04:18;22.30;;;10.40;;
44893;SDS011;30625;52.206;21.030;2023-02-28T05:06:43;24.75;;;10.75;;
44893;SDS011;30625;52.206;21.030;2023-02-28T05:09:09;22.23;;;10.40;;
44893;SDS011;30625;52.206;21.030;2023-02-28T05:11:38;25.10;;;10.40;;
44893;SDS011;30625;52.206;21.030;2023-02-28T05:14:06;20.92;;;9.73;;
44893;SDS011;30625;52.206;21.030;2023-02-28T05:16:35;20.75;;;9.55;;
44893;SDS011;30625;52.206;21.030;2023-02-28T05:19:00;21.55;;;10.20;;
44893;SDS011;30625;52.206;21.030;2023-02-28T05:21:28;22.83;;;11.18;;
44893;SDS011;30625;52.206;21.030;2023-02-28T05:23:56;21.13;;;10.18;;
44893;SDS011;30625;52.206;21.030;2023-02-28T05:26:26;24.75;;;10.48;;
44893;SDS011;30625;52.206;21.030;2023-02-28T05:28:52;23.08;;;10.45;;
44893;SDS011;30625;52.206;21.030;2023-02-28T05:31:21;23.10;;;10.32;;
44893;SDS011;30625;52.206;21.030;2023-02-28T05:33:47;21.02;;;9.43;;
44893;SDS011;30625;52.206;21.030;2023-02-28T05:36:13;21.98;;;10.73;;
44893;SDS011;30625;52.206;21.030;2023-02-28T05:38:39;18.92;;;9.57;;
44893;SDS011;30625;52.206;21.030;2023-02-28T05:41:08;19.75;;;10.05;;
44893;SDS011;30625;52.206;21.030;2023-02-28T05:43:35;23.27;;;10.57;;
44893;SDS011;30625;52.206;21.030;2023-02-28T05:46:07;24.58;;;11.20;;
44893;SDS011;30625;52.206;21.030;2023-02-28T05:48:35;22.38;;;10.77;;
44893;SDS011;30625;52.206;21.030;2023-02-28T05:51:02;20.67;;;10.00;;
44893;SDS011;30625;52.206;21.030;2023-02-28T05:53:29;18.92;;;9.93;;
44893;SDS011;30625;52.206;21.030;2023-02-28T05:55:55;30.80;;;11.38;;
44893;SDS011;30625;52.206;21.030;2023-02-28T05:58:21;20.52;;;9.88;;
44893;SDS011;30625;52.206;21.030;2023-02-28T06:00:46;26.60;;;11.48;;
44893;SDS011;30625;52.206;21.030;2023-02-28T06:03:12;21.80;;;11.02;;
44893;SDS011;30625;52.206;21.030;2023-02-28T06:05:38;26.80;;;11.15;;
44893;SDS011;30625;52.206;21.030;2023-02-28T06:08:04;36.70;;;11.48;;
44893;SDS011;30625;52.206;21.030;2023-02-28T06:10:32;23.15;;;11.07;;
44893;SDS011;30625;52.206;21.030;2023-02-28T06:13:01;23.15;;;10.23;;
44893;SDS011;30625;52.206;21.030;2023-02-28T06:15:28;25.55;;;11.25;;
44893;SDS011;30625;52.206;21.030;2023-02-28T06:17:54;24.27;;;11.00;;
44893;SDS011;30625;52.206;21.030;2023-02-28T06:20:21;24.55;;;10.25;;
44893;SDS011;30625;52.206;21.030;2023-02-28T06:22:48;28.88;;;11.40;;
44893;SDS011;30625;52.206;21.030;2023-02-28T06:25:16;20.27;;;9.90;;
44893;SDS011;30625;52.206;21.030;2023-02-28T06:27:42;19.17;;;9.30;;
44893;SDS011;30625;52.206;21.030;2023-02-28T06:30:09;25.02;;;11.35;;
44893;SDS011;30625;52.206;21.030;2023-02-28T06:32:36;26.70;;;10.73;;
44893;SDS011;30625;52.206;21.030;2023-02-28T06:35:01;25.80;;;10.77;;
44893;SDS011;30625;52.206;21.030;2023-02-28T06:37:30;24.15;;;10.52;;
44893;SDS011;30625;52.206;21.030;2023-02-28T06:39:56;25.98;;;11.73;;
44893;SDS011;30625;52.206;21.030;2023-02-28T06:42:23;25.85;;;11.57;;
44893;SDS011;30625;52.206;21.030;2023-02-28T06:44:53;22.75;;;10.63;;
44893;SDS011;30625;52.206;21.030;2023-02-28T06:47:20;23.42;;;11.30;;
44893;SDS011;30625;52.206;21.030;2023-02-28T06:52:12;25.23;;;11.23;;
44893;SDS011;30625;52.206;21.030;2023-02-28T06:54:37;26.50;;;9.75;;
44893;SDS011;30625;52.206;21.030;2023-02-28T06:57:03;24.20;;;11.18;;
44893;SDS011;30625;52.206;21.030;2023-02-28T07:01:55;23.20;;;10.35;;
44893;SDS011;30625;52.206;21.030;2023-02-28T07:04:21;21.27;;;9.43;;
44893;SDS011;30625;52.206;21.030;2023-02-28T07:09:12;25.05;;;9.85;;
44893;SDS011;30625;52.206;21.030;2023-02-28T07:11:39;21.50;;;10.20;;
44893;SDS011;30625;52.206;21.030;2023-02-28T07:14:06;21.50;;;8.27;;
44893;SDS011;30625;52.206;21.030;2023-02-28T07:16:32;22.58;;;8.63;;
44893;SDS011;30625;52.206;21.030;2023-02-28T07:18:58;18.35;;;8.68;;
44893;SDS011;30625;52.206;21.030;2023-02-28T07:21:23;17.58;;;8.32;;
44893;SDS011;30625;52.206;21.030;2023-02-28T07:23:49;17.85;;;8.10;;
44893;SDS011;30625;52.206;21.030;2023-02-28T07:26:19;15.77;;;7.82;;
44893;SDS011;30625;52.206;21.030;2023-02-28T07:28:46;20.83;;;8.70;;
44893;SDS011;30625;52.206;21.030;2023-02-28T07:31:13;21.98;;;7.50;;
44893;SDS011;30625;52.206;21.030;2023-02-28T07:33:39;15.88;;;6.70;;
44893;SDS011;30625;52.206;21.030;2023-02-28T07:36:07;14.57;;;6.43;;
44893;SDS011;30625;52.206;21.030;2023-02-28T07:38:38;18.40;;;6.60;;
44893;SDS011;30625;52.206;21.030;2023-02-28T07:41:04;15.70;;;6.82;;
44893;SDS011;30625;52.206;21.030;2023-02-28T07:43:31;16.02;;;6.55;;
44893;SDS011;30625;52.206;21.030;2023-02-28T07:46:07;13.15;;;5.70;;
44893;SDS011;30625;52.206;21.030;2023-02-28T07:48:35;17.50;;;5.80;;
44893;SDS011;30625;52.206;21.030;2023-02-28T07:51:01;13.45;;;6.35;;
44893;SDS011;30625;52.206;21.030;2023-02-28T07:55:57;14.15;;;6.13;;
44893;SDS011;30625;52.206;21.030;2023-02-28T07:58:23;12.05;;;5.53;;
44893;SDS011;30625;52.206;21.030;2023-02-28T08:03:16;8.23;;;4.38;;
44893;SDS011;30625;52.206;21.030;2023-02-28T08:05:45;7.85;;;4.03;;
44893;SDS011;30625;52.206;21.030;2023-02-28T08:08:12;9.43;;;4.15;;
44893;SDS011;30625;52.206;21.030;2023-02-28T08:13:04;7.97;;;4.00;;
44893;SDS011;30625;52.206;21.030;2023-02-28T08:15:30;12.40;;;4.60;;
44893;SDS011;30625;52.206;21.030;2023-02-28T08:17:57;9.52;;;4.20;;
44893;SDS011;30625;52.206;21.030;2023-02-28T08:20:23;10.30;;;5.00;;
44893;SDS011;30625;52.206;21.030;2023-02-28T08:22:50;9.82;;;5.20;;
44893;SDS011;30625;52.206;21.030;2023-02-28T08:25:15;10.75;;;5.18;;
44893;SDS011;30625;52.206;21.030;2023-02-28T08:27:41;12.85;;;6.50;;
44893;SDS011;30625;52.206;21.030;2023-02-28T08:30:08;12.02;;;6.95;;
44893;SDS011;30625;52.206;21.030;2023-02-28T08:32:39;13.02;;;6.70;;
44893;SDS011;30625;52.206;21.030;2023-02-28T08:35:05;13.30;;;6.40;;
44893;SDS011;30625;52.206;21.030;2023-02-28T08:37:34;13.65;;;6.50;;
44893;SDS011;30625;52.206;21.030;2023-02-28T08:40:00;14.90;;;7.25;;
44893;SDS011;30625;52.206;21.030;2023-02-28T08:42:25;12.45;;;6.57;;
44893;SDS011;30625;52.206;21.030;2023-02-28T08:44:51;10.63;;;5.78;;
44893;SDS011;30625;52.206;21.030;2023-02-28T08:47:17;11.05;;;6.13;;
44893;SDS011;30625;52.206;21.030;2023-02-28T08:49:42;13.30;;;5.75;;
44893;SDS011;30625;52.206;21.030;2023-02-28T08:52:08;11.40;;;5.85;;
44893;SDS011;30625;52.206;21.030;2023-02-28T08:54:35;11.30;;;6.13;;
44893;SDS011;30625;52.206;21.030;2023-02-28T08:57:01;14.27;;;6.43;;
44893;SDS011;30625;52.206;21.030;2023-02-28T08:59:27;15.48;;;6.78;;
44893;SDS011;30625;52.206;21.030;2023-02-28T09:01:54;11.43;;;6.20;;
44893;SDS011;30625;52.206;21.030;2023-02-28T09:04:19;12.38;;;6.72;;
44893;SDS011;30625;52.206;21.030;2023-02-28T09:06:45;13.25;;;6.57;;
44893;SDS011;30625;52.206;21.030;2023-02-28T09:09:11;14.32;;;6.68;;
44893;SDS011;30625;52.206;21.030;2023-02-28T09:11:36;12.57;;;5.68;;
44893;SDS011;30625;52.206;21.030;2023-02-28T09:14:02;12.35;;;6.13;;
44893;SDS011;30625;52.206;21.030;2023-02-28T09:16:29;11.82;;;5.85;;
44893;SDS011;30625;52.206;21.030;2023-02-28T09:18:56;12.60;;;6.38;;
44893;SDS011;30625;52.206;21.030;2023-02-28T09:21:22;13.10;;;6.72;;
44893;SDS011;30625;52.206;21.030;2023-02-28T09:23:48;13.77;;;6.70;;
44893;SDS011;30625;52.206;21.030;2023-02-28T09:26:15;10.38;;;6.10;;
44893;SDS011;30625;52.206;21.030;2023-02-28T09:28:44;13.27;;;6.63;;
44893;SDS011;30625;52.206;21.030;2023-02-28T09:31:15;11.05;;;5.85;;
44893;SDS011;30625;52.206;21.030;2023-02-28T09:33:45;13.82;;;6.80;;
44893;SDS011;30625;52.206;21.030;2023-02-28T09:36:12;12.93;;;6.18;;
44893;SDS011;30625;52.206;21.030;2023-02-28T09:38:37;11.00;;;6.10;;
44893;SDS011;30625;52.206;21.030;2023-02-28T09:41:08;13.05;;;6.43;;
44893;SDS011;30625;52.206;21.030;2023-02-28T09:43:41;14.02;;;6.75;;
44893;SDS011;30625;52.206;21.030;2023-02-28T09:46:20;10.32;;;6.32;;
44893;SDS011;30625;52.206;21.030;2023-02-28T09:48:56;9.63;;;6.05;;
44893;SDS011;30625;52.206;21.030;2023-02-28T09:54:14;16.13;;;6.63;;
44893;SDS011;30625;52.206;21.030;2023-02-28T09:56:43;10.70;;;6.22;;
44893;SDS011;30625;52.206;21.030;2023-02-28T10:02:17;11.45;;;6.05;;
44893;SDS011;30625;52.206;21.030;2023-02-28T10:05:13;11.55;;;6.07;;
44893;SDS011;30625;52.206;21.030;2023-02-28T10:13:35;21.70;;;7.13;;
44893;SDS011;30625;52.206;21.030;2023-02-28T10:16:26;12.27;;;6.60;;
44893;SDS011;30625;52.206;21.030;2023-02-28T10:19:03;13.07;;;6.55;;
44893;SDS011;30625;52.206;21.030;2023-02-28T10:21:38;22.08;;;7.70;;
44893;SDS011;30625;52.206;21.030;2023-02-28T10:27:18;12.93;;;6.88;;
44893;SDS011;30625;52.206;21.030;2023-02-28T10:29:53;10.73;;;7.13;;
44893;SDS011;30625;52.206;21.030;2023-02-28T10:32:22;16.15;;;6.72;;
44893;SDS011;30625;52.206;21.030;2023-02-28T10:37:37;15.43;;;7.07;;
44893;SDS011;30625;52.206;21.030;2023-02-28T10:40:28;12.30;;;6.80;;
44893;SDS011;30625;52.206;21.030;2023-02-28T10:45:33;13.48;;;6.97;;
44893;SDS011;30625;52.206;21.030;2023-02-28T10:48:03;14.70;;;7.45;;
44893;SDS011;30625;52.206;21.030;2023-02-28T10:50:32;13.13;;;7.25;;
44893;SDS011;30625;52.206;21.030;2023-02-28T10:55:40;11.23;;;6.70;;
44893;SDS011;30625;52.206;21.030;2023-02-28T10:58:21;13.00;;;7.03;;
44893;SDS011;30625;52.206;21.030;2023-02-28T11:00:48;11.23;;;7.32;;
44893;SDS011;30625;52.206;21.030;2023-02-28T11:05:54;12.65;;;7.38;;
44893;SDS011;30625;52.206;21.030;2023-02-28T11:08:20;13.55;;;7.25;;
44893;SDS011;30625;52.206;21.030;2023-02-28T11:10:46;12.40;;;6.95;;
44893;SDS011;30625;52.206;21.030;2023-02-28T11:13:19;16.92;;;8.27;;
44893;SDS011;30625;52.206;21.030;2023-02-28T11:15:52;14.55;;;7.32;;
44893;SDS011;30625;52.206;21.030;2023-02-28T11:18:21;14.20;;;7.65;;
44893;SDS011;30625;52.206;21.030;2023-02-28T11:20:56;14.27;;;7.00;;
44893;SDS011;30625;52.206;21.030;2023-02-28T11:23:25;14.40;;;7.80;;
44893;SDS011;30625;52.206;21.030;2023-02-28T11:25:53;18.45;;;8.10;;
44893;SDS011;30625;52.206;21.030;2023-02-28T11:28:55;15.27;;;8.13;;
44893;SDS011;30625;52.206;21.030;2023-02-28T11:31:27;16.83;;;8.05;;
44893;SDS011;30625;52.206;21.030;2023-02-28T11:33:55;19.77;;;7.95;;
44893;SDS011;30625;52.206;21.030;2023-02-28T11:38:56;15.30;;;7.95;;
44893;SDS011;30625;52.206;21.030;2023-02-28T11:44:32;16.75;;;7.43;;
44893;SDS011;30625;52.206;21.030;2023-02-28T12:06:24;16.48;;;8.95;;
44893;SDS011;30625;52.206;21.030;2023-02-28T12:16:59;19.35;;;8.93;;
44893;SDS011;30625;52.206;21.030;2023-02-28T12:22:30;19.85;;;8.65;;
44893;SDS011;30625;52.206;21.030;2023-02-28T12:27:33;17.02;;;8.40;;
44893;SDS011;30625;52.206;21.030;2023-02-28T12:30:16;13.95;;;8.38;;
44893;SDS011;30625;52.206;21.030;2023-02-28T12:32:47;16.60;;;8.95;;
44893;SDS011;30625;52.206;21.030;2023-02-28T12:35:32;14.55;;;7.78;;
44893;SDS011;30625;52.206;21.030;2023-02-28T12:40:45;14.35;;;8.40;;
44893;SDS011;30625;52.206;21.030;2023-02-28T12:43:16;14.65;;;8.35;;
44893;SDS011;30625;52.206;21.030;2023-02-28T12:45:52;14.15;;;8.18;;
44893;SDS011;30625;52.206;21.030;2023-02-28T12:48:24;15.13;;;7.90;;
44893;SDS011;30625;52.206;21.030;2023-02-28T12:51:11;14.90;;;8.68;;
44893;SDS011;30625;52.206;21.030;2023-02-28T12:56:29;18.35;;;8.70;;
44893;SDS011;30625;52.206;21.030;2023-02-28T13:10:19;14.90;;;9.05;;
44893;SDS011;30625;52.206;21.030;2023-02-28T13:12:52;18.63;;;9.52;;
44893;SDS011;30625;52.206;21.030;2023-02-28T13:15:28;16.27;;;8.55;;
44893;SDS011;30625;52.206;21.030;2023-02-28T13:17:55;17.98;;;8.05;;
44893;SDS011;30625;52.206;21.030;2023-02-28T13:20:24;18.58;;;8.60;;
44893;SDS011;30625;52.206;21.030;2023-02-28T13:22:52;20.02;;;9.15;;
44893;SDS011;30625;52.206;21.030;2023-02-28T13:27:48;15.50;;;8.93;;
44893;SDS011;30625;52.206;21.030;2023-02-28T13:33:27;14.80;;;7.85;;
44893;SDS011;30625;52.206;21.030;2023-02-28T13:36:06;21.55;;;9.25;;
44893;SDS011;30625;52.206;21.030;2023-02-28T13:38:48;17.83;;;8.80;;
44893;SDS011;30625;52.206;21.030;2023-02-28T13:44:12;15.23;;;8.38;;
44893;SDS011;30625;52.206;21.030;2023-02-28T13:47:15;18.13;;;8.75;;
44893;SDS011;30625;52.206;21.030;2023-02-28T13:49:26;18.17;;;8.35;;
44893;SDS011;30625;52.206;21.030;2023-02-28T14:03:36;15.73;;;8.88;;
44893;SDS011;30625;52.206;21.030;2023-02-28T14:09:06;18.95;;;9.38;;
44893;SDS011;30625;52.206;21.030;2023-02-28T14:11:52;17.10;;;9.10;;
44893;SDS011;30625;52.206;21.030;2023-02-28T14:17:03;17.42;;;9.27;;
44893;SDS011;30625;52.206;21.030;2023-02-28T14:19:37;16.55;;;8.88;;
44893;SDS011;30625;52.206;21.030;2023-02-28T14:38:03;26.02;;;10.23;;
44893;SDS011;30625;52.206;21.030;2023-02-28T14:40:34;19.95;;;8.70;;
44893;SDS011;30625;52.206;21.030;2023-02-28T14:43:01;16.85;;;8.90;;
44893;SDS011;30625;52.206;21.030;2023-02-28T14:45:32;17.30;;;8.38;;
44893;SDS011;30625;52.206;21.030;2023-02-28T14:48:02;18.05;;;9.45;;
44893;SDS011;30625;52.206;21.030;2023-02-28T14:50:34;16.13;;;9.07;;
44893;SDS011;30625;52.206;21.030;2023-02-28T14:53:01;18.02;;;8.20;;
44893;SDS011;30625;52.206;21.030;2023-02-28T14:55:29;14.57;;;8.20;;
44893;SDS011;30625;52.206;21.030;2023-02-28T14:58:27;15.65;;;8.00;;
44893;SDS011;30625;52.206;21.030;2023-02-28T15:00:56;16.88;;;8.07;;
44893;SDS011;30625;52.206;21.030;2023-02-28T15:03:28;16.10;;;8.20;;
44893;SDS011;30625;52.206;21.030;2023-02-28T15:05:57;18.17;;;9.00;;
44893;SDS011;30625;52.206;21.030;2023-02-28T15:08:25;16.33;;;8.63;;
44893;SDS011;30625;52.206;21.030;2023-02-28T15:11:39;16.17;;;8.88;;
44893;SDS011;30625;52.206;21.030;2023-02-28T15:16:55;15.20;;;7.50;;
44893;SDS011;30625;52.206;21.030;2023-02-28T15:19:06;16.67;;;7.32;;
44893;SDS011;30625;52.206;21.030;2023-02-28T15:21:39;16.13;;;7.63;;
44893;SDS011;30625;52.206;21.030;2023-02-28T15:24:10;14.05;;;7.68;;
44893;SDS011;30625;52.206;21.030;2023-02-28T15:26:54;15.20;;;7.70;;
44893;SDS011;30625;52.206;21.030;2023-02-28T15:29:25;17.40;;;8.23;;
44893;SDS011;30625;52.206;21.030;2023-02-28T15:31:57;19.00;;;8.45;;
44893;SDS011;30625;52.206;21.030;2023-02-28T15:34:29;16.10;;;7.45;;
44893;SDS011;30625;52.206;21.030;2023-02-28T15:36:58;12.57;;;7.32;;
44893;SDS011;30625;52.206;21.030;2023-02-28T15:39:25;16.55;;;8.15;;
44893;SDS011;30625;52.206;21.030;2023-02-28T15:42:09;18.35;;;8.18;;
44893;SDS011;30625;52.206;21.030;2023-02-28T15:44:36;16.00;;;7.97;;
44893;SDS011;30625;52.206;21.030;2023-02-28T15:47:03;13.98;;;7.30;;
44893;SDS011;30625;52.206;21.030;2023-02-28T15:49:37;14.40;;;7.55;;
44893;SDS011;30625;52.206;21.030;2023-02-28T15:52:11;15.55;;;7.60;;
44893;SDS011;30625;52.206;21.030;2023-02-28T15:54:40;15.23;;;7.40;;
44893;SDS011;30625;52.206;21.030;2023-02-28T15:57:10;13.13;;;7.28;;
44893;SDS011;30625;52.206;21.030;2023-02-28T15:59:44;15.65;;;7.82;;
44893;SDS011;30625;52.206;21.030;2023-02-28T16:02:17;17.40;;;7.88;;
44893;SDS011;30625;52.206;21.030;2023-02-28T16:04:58;18.08;;;8.23;;
44893;SDS011;30625;52.206;21.030;2023-02-28T16:07:42;14.10;;;7.68;;
44893;SDS011;30625;52.206;21.030;2023-02-28T16:10:10;19.43;;;8.73;;
44893;SDS011;30625;52.206;21.030;2023-02-28T16:12:39;18.15;;;8.60;;
44893;SDS011;30625;52.206;21.030;2023-02-28T16:15:14;15.38;;;7.70;;
44893;SDS011;30625;52.206;21.030;2023-02-28T16:17:44;13.95;;;7.15;;
44893;SDS011;30625;52.206;21.030;2023-02-28T16:20:12;17.38;;;7.97;;
44893;SDS011;30625;52.206;21.030;2023-02-28T16:22:44;20.20;;;8.75;;
44893;SDS011;30625;52.206;21.030;2023-02-28T16:25:13;16.60;;;7.82;;
44893;SDS011;30625;52.206;21.030;2023-02-28T16:27:40;17.67;;;8.50;;
44893;SDS011;30625;52.206;21.030;2023-02-28T16:30:07;17.90;;;9.13;;
44893;SDS011;30625;52.206;21.030;2023-02-28T16:32:39;18.60;;;9.38;;
44893;SDS011;30625;52.206;21.030;2023-02-28T16:35:05;16.80;;;9.10;;
44893;SDS011;30625;52.206;21.030;2023-02-28T16:37:34;19.08;;;9.65;;
44893;SDS011;30625;52.206;21.030;2023-02-28T16:40:00;20.60;;;9.70;;
44893;SDS011;30625;52.206;21.030;2023-02-28T16:42:26;22.42;;;9.20;;
44893;SDS011;30625;52.206;21.030;2023-02-28T16:44:53;20.13;;;9.07;;
44893;SDS011;30625;52.206;21.030;2023-02-28T16:47:19;21.33;;;9.98;;
44893;SDS011;30625;52.206;21.030;2023-02-28T16:49:45;19.60;;;9.55;;
44893;SDS011;30625;52.206;21.030;2023-02-28T16:52:12;24.20;;;9.32;;
44893;SDS011;30625;52.206;21.030;2023-02-28T16:54:38;19.73;;;9.40;;
44893;SDS011;30625;52.206;21.030;2023-02-28T16:57:04;19.85;;;9.32;;
44893;SDS011;30625;52.206;21.030;2023-02-28T16:59:31;21.05;;;10.43;;
44893;SDS011;30625;52.206;21.030;2023-02-28T17:01:57;24.52;;;10.50;;
44893;SDS011;30625;52.206;21.030;2023-02-28T17:04:23;18.60;;;9.85;;
44893;SDS011;30625;52.206;21.030;2023-02-28T17:06:50;22.40;;;10.38;;
44893;SDS011;30625;52.206;21.030;2023-02-28T17:09:20;19.45;;;9.85;;
44893;SDS011;30625;52.206;21.030;2023-02-28T17:11:46;20.92;;;9.68;;
44893;SDS011;30625;52.206;21.030;2023-02-28T17:14:13;22.80;;;10.82;;
44893;SDS011;30625;52.206;21.030;2023-02-28T17:16:39;25.42;;;9.95;;
44893;SDS011;30625;52.206;21.030;2023-02-28T17:19:09;22.58;;;11.05;;
44893;SDS011;30625;52.206;21.030;2023-02-28T17:21:36;22.17;;;10.73;;
44893;SDS011;30625;52.206;21.030;2023-02-28T17:24:03;22.67;;;10.85;;
44893;SDS011;30625;52.206;21.030;2023-02-28T17:26:29;20.27;;;10.05;;
44893;SDS011;30625;52.206;21.030;2023-02-28T17:28:55;24.85;;;10.73;;
44893;SDS011;30625;52.206;21.030;2023-02-28T17:31:22;26.25;;;12.52;;
44893;SDS011;30625;52.206;21.030;2023-02-28T17:33:49;23.88;;;10.70;;
44893;SDS011;30625;52.206;21.030;2023-02-28T17:36:16;24.33;;;11.18;;